createdAt,value
2023-04-18T00:00:43.973Z,26.17
2023-04-18T00:01:43.996Z,26.12
2023-04-18T00:02:44.249Z,26.13
2023-04-18T00:03:44.270Z,26.14
2023-04-18T00:04:44.199Z,26.17
2023-04-18T00:05:44.255Z,26.12
2023-04-18T00:06:44.238Z,26.15
2023-04-18T00:07:44.284Z,26.08
2023-04-18T00:08:44.295Z,26.14
2023-04-18T00:09:44.514Z,26.10
2023-04-18T00:10:44.358Z,26.10
2023-04-18T00:11:44.431Z,26.11
2023-04-18T00:12:44.493Z,26.12
2023-04-18T00:13:44.573Z,25.91
2023-04-18T00:14:44.590Z,26.11
2023-04-18T00:15:44.647Z,26.10
2023-04-18T00:16:44.756Z,26.05
2023-04-18T00:17:44.794Z,26.07
2023-04-18T00:18:44.761Z,26.12
2023-04-18T00:19:44.788Z,26.07
2023-04-18T00:20:44.886Z,26.11
2023-04-18T00:21:45.226Z,26.04
2023-04-18T00:22:44.915Z,26.07
2023-04-18T00:23:44.953Z,26.03
2023-04-18T00:24:45.036Z,26.09
2023-04-18T00:25:45.063Z,26.08
2023-04-18T00:26:45.102Z,26.09
2023-04-18T00:27:45.173Z,26.08
2023-04-18T00:28:45.176Z,26.08
2023-04-18T00:29:45.248Z,26.04
2023-04-18T00:30:45.337Z,26.01
2023-04-18T00:31:45.319Z,26.07
2023-04-18T00:32:45.418Z,26.08
2023-04-18T00:33:45.430Z,26.05
2023-04-18T00:34:45.459Z,26.00
2023-04-18T00:35:45.507Z,26.02
2023-04-18T00:36:45.564Z,26.02
2023-04-18T00:37:45.614Z,26.03
2023-04-18T00:38:45.649Z,26.01
2023-04-18T00:39:45.695Z,25.96
2023-04-18T00:40:45.781Z,25.98
2023-04-18T00:41:45.806Z,26.04
2023-04-18T00:42:45.851Z,26.00
2023-04-18T00:43:45.934Z,26.02
2023-04-18T00:44:45.929Z,26.00
2023-04-18T00:45:46.010Z,25.98
2023-04-18T00:46:46.010Z,25.98
2023-04-18T00:47:46.337Z,26.01
2023-04-18T00:48:46.124Z,26.00
2023-04-18T00:49:46.168Z,25.97
2023-04-18T00:50:46.310Z,25.98
2023-04-18T00:51:46.273Z,25.93
2023-04-18T00:52:46.293Z,25.93
2023-04-18T00:53:46.373Z,25.98
2023-04-18T00:54:46.386Z,25.98
2023-04-18T00:55:46.462Z,25.93
2023-04-18T00:56:46.484Z,25.93
2023-04-18T00:57:46.533Z,25.91
2023-04-18T00:58:46.584Z,25.96
2023-04-18T00:59:46.658Z,25.96
2023-04-18T01:00:46.643Z,25.96
2023-04-18T01:01:46.877Z,25.94
2023-04-18T01:02:46.858Z,25.98
2023-04-18T01:03:46.908Z,25.97
2023-04-18T01:04:46.870Z,25.93
2023-04-18T01:05:46.916Z,25.97
2023-04-18T01:06:46.930Z,25.97
2023-04-18T01:07:47.003Z,25.91
2023-04-18T01:08:47.035Z,25.91
2023-04-18T01:09:47.081Z,25.93
2023-04-18T01:10:47.138Z,25.90
2023-04-18T01:11:47.178Z,25.96
2023-04-18T01:12:47.267Z,25.97
2023-04-18T01:13:47.278Z,25.91
2023-04-18T01:14:47.303Z,25.96
2023-04-18T01:15:47.415Z,25.93
2023-04-18T01:16:47.401Z,25.96
2023-04-18T01:17:47.495Z,25.88
2023-04-18T01:18:47.527Z,25.90
2023-04-18T01:19:47.518Z,25.91
2023-04-18T01:20:47.587Z,25.87
2023-04-18T01:21:47.672Z,25.85
2023-04-18T01:22:47.660Z,25.90
2023-04-18T01:23:47.714Z,25.90
2023-04-18T01:24:47.791Z,25.87
2023-04-18T01:25:47.785Z,25.87
2023-04-18T01:26:47.834Z,25.85
2023-04-18T01:27:47.871Z,25.90
2023-04-18T01:28:47.933Z,25.88
2023-04-18T01:29:47.965Z,25.88
2023-04-18T01:30:47.998Z,25.91
2023-04-18T01:31:48.133Z,25.90
2023-04-18T01:32:48.117Z,25.83
2023-04-18T01:33:48.136Z,25.90
2023-04-18T01:34:48.186Z,25.88
2023-04-18T01:35:48.243Z,25.84
2023-04-18T01:36:48.267Z,25.88
2023-04-18T01:37:48.281Z,25.87
2023-04-18T01:38:48.321Z,25.85
2023-04-18T01:39:48.392Z,25.84
2023-04-18T01:40:48.433Z,25.85
2023-04-18T01:41:48.490Z,25.85
2023-04-18T01:42:48.543Z,25.85
2023-04-18T01:43:48.576Z,25.83
2023-04-18T01:44:48.580Z,25.83
2023-04-18T01:45:48.657Z,25.84
2023-04-18T01:46:48.762Z,25.84
2023-04-18T01:47:48.821Z,25.87
2023-04-18T01:48:48.790Z,25.80
2023-04-18T01:49:48.828Z,25.84
2023-04-18T01:50:48.861Z,25.77
2023-04-18T01:51:48.911Z,25.84
2023-04-18T01:52:48.928Z,25.83
2023-04-18T01:53:48.977Z,25.80
2023-04-18T01:54:49.027Z,25.81
2023-04-18T01:55:49.098Z,25.81
2023-04-18T01:56:49.106Z,25.80
2023-04-18T01:57:49.164Z,25.81
2023-04-18T01:58:49.189Z,25.78
2023-04-18T01:59:49.220Z,25.78
2023-04-18T02:00:49.284Z,25.81
2023-04-18T02:01:49.320Z,25.81
2023-04-18T02:02:49.493Z,25.81
2023-04-18T02:03:49.474Z,25.80
2023-04-18T02:04:49.471Z,25.78
2023-04-18T02:05:49.471Z,25.80
2023-04-18T02:06:49.525Z,25.71
2023-04-18T02:07:49.583Z,25.73
2023-04-18T02:08:49.600Z,25.75
2023-04-18T02:09:49.638Z,25.76
2023-04-18T02:10:49.654Z,25.71
2023-04-18T02:11:49.722Z,25.80
2023-04-18T02:12:49.769Z,25.77
2023-04-18T02:13:49.782Z,25.76
2023-04-18T02:14:49.818Z,25.73
2023-04-18T02:15:49.854Z,25.66
2023-04-18T02:16:49.951Z,25.74
2023-04-18T02:17:50.002Z,25.73
2023-04-18T02:18:49.973Z,25.69
2023-04-18T02:19:49.958Z,25.36
2023-04-18T02:20:49.982Z,25.24
2023-04-18T02:21:50.037Z,25.21
2023-04-18T02:22:50.063Z,25.25
2023-04-18T02:23:50.047Z,25.44
2023-04-18T02:24:50.070Z,25.47
2023-04-18T02:25:50.085Z,25.55
2023-04-18T02:26:50.105Z,25.60
2023-04-18T02:27:50.099Z,25.57
2023-04-18T02:28:50.080Z,25.58
2023-04-18T02:29:50.104Z,25.54
2023-04-18T02:30:50.129Z,25.54
2023-04-18T02:31:50.178Z,25.53
2023-04-18T02:32:50.161Z,25.57
2023-04-18T02:33:50.142Z,25.48
2023-04-18T02:34:50.123Z,25.55
2023-04-18T02:35:50.130Z,25.51
2023-04-18T02:36:50.122Z,25.55
2023-04-18T02:37:50.148Z,25.51
2023-04-18T02:38:50.142Z,25.51
2023-04-18T02:39:50.154Z,25.48
2023-04-18T02:40:50.215Z,25.48
2023-04-18T02:41:50.202Z,25.43
2023-04-18T02:42:50.293Z,25.47
2023-04-18T02:43:50.301Z,25.51
2023-04-18T02:44:50.308Z,25.44
2023-04-18T02:45:50.365Z,25.39
2023-04-18T02:46:50.400Z,25.42
2023-04-18T02:47:55.163Z,25.37
2023-04-18T02:48:51.416Z,25.36
2023-04-18T02:49:50.426Z,25.39
2023-04-18T02:50:50.390Z,25.37
2023-04-18T02:51:50.401Z,25.35
2023-04-18T02:52:50.420Z,25.32
2023-04-18T02:53:50.390Z,25.35
2023-04-18T02:54:50.414Z,25.35
2023-04-18T02:55:50.364Z,25.31
2023-04-18T02:56:50.378Z,25.28
2023-04-18T02:57:50.443Z,25.27
2023-04-18T02:58:50.468Z,25.25
2023-04-18T02:59:50.475Z,25.28
2023-04-18T03:00:51.322Z,25.25
2023-04-18T03:01:50.631Z,25.23
2023-04-18T03:02:50.762Z,25.25
2023-04-18T03:03:50.708Z,25.22
2023-04-18T03:04:50.920Z,25.26
2023-04-18T03:05:50.796Z,25.21
2023-04-18T03:06:50.869Z,25.22
2023-04-18T03:07:50.912Z,25.23
2023-04-18T03:08:50.976Z,25.20
2023-04-18T03:09:51.021Z,25.16
2023-04-18T03:10:51.131Z,25.16
2023-04-18T03:11:51.168Z,25.20
2023-04-18T03:12:51.225Z,25.15
2023-04-18T03:13:51.337Z,25.15
2023-04-18T03:14:52.345Z,25.16
2023-04-18T03:15:51.481Z,25.15
2023-04-18T03:16:53.855Z,25.15
2023-04-18T03:17:51.500Z,25.18
2023-04-18T03:18:51.441Z,25.16
2023-04-18T03:19:51.442Z,25.11
2023-04-18T03:20:51.463Z,25.15
2023-04-18T03:21:51.439Z,25.18
2023-04-18T03:22:51.436Z,25.12
2023-04-18T03:23:51.416Z,25.11
2023-04-18T03:24:51.440Z,25.11
2023-04-18T03:25:51.387Z,25.08
2023-04-18T03:26:51.385Z,25.11
2023-04-18T03:27:51.377Z,25.10
2023-04-18T03:28:51.361Z,25.11
2023-04-18T03:29:51.367Z,25.12
2023-04-18T03:30:51.388Z,25.11
2023-04-18T03:31:51.477Z,25.10
2023-04-18T03:32:51.439Z,25.08
2023-04-18T03:33:51.323Z,25.11
2023-04-18T03:34:51.354Z,25.07
2023-04-18T03:35:51.296Z,25.05
2023-04-18T03:36:51.302Z,25.04
2023-04-18T03:37:51.319Z,25.07
2023-04-18T03:38:51.291Z,25.07
2023-04-18T03:39:51.292Z,25.07
2023-04-18T03:40:51.282Z,25.00
2023-04-18T03:41:51.296Z,25.07
2023-04-18T03:42:51.350Z,25.04
2023-04-18T03:43:51.400Z,25.01
2023-04-18T03:44:51.416Z,25.04
2023-04-18T03:45:51.533Z,25.04
2023-04-18T03:46:51.582Z,25.01
2023-04-18T03:47:51.694Z,24.99
2023-04-18T03:48:51.700Z,25.02
2023-04-18T03:49:51.760Z,25.04
2023-04-18T03:50:51.813Z,25.00
2023-04-18T03:51:51.853Z,24.99
2023-04-18T03:52:51.934Z,24.99
2023-04-18T03:53:51.967Z,24.97
2023-04-18T03:54:52.052Z,24.99
2023-04-18T03:55:52.068Z,24.95
2023-04-18T03:56:52.094Z,25.00
2023-04-18T03:57:52.165Z,25.02
2023-04-18T03:58:52.213Z,25.03
2023-04-18T03:59:52.277Z,24.99
2023-04-18T04:00:52.354Z,24.99
2023-04-18T04:01:52.455Z,25.02
2023-04-18T04:02:52.553Z,24.96
2023-04-18T04:03:52.751Z,24.95
2023-04-18T04:04:52.556Z,24.96
2023-04-18T04:05:52.685Z,24.96
2023-04-18T04:06:52.636Z,24.92
2023-04-18T04:07:52.700Z,24.98
2023-04-18T04:08:52.754Z,24.95
2023-04-18T04:09:52.808Z,24.92
2023-04-18T04:10:52.806Z,24.92
2023-04-18T04:11:52.886Z,24.97
2023-04-18T04:12:52.904Z,24.92
2023-04-18T04:13:52.958Z,24.93
2023-04-18T04:14:53.054Z,24.89
2023-04-18T04:15:53.182Z,24.92
2023-04-18T04:16:53.180Z,24.89
2023-04-18T04:17:53.222Z,24.91
2023-04-18T04:18:53.231Z,24.89
2023-04-18T04:19:53.303Z,24.91
2023-04-18T04:20:53.317Z,24.93
2023-04-18T04:21:53.350Z,24.92
2023-04-18T04:22:53.424Z,24.87
2023-04-18T04:23:53.445Z,24.91
2023-04-18T04:24:53.554Z,24.87
2023-04-18T04:25:53.531Z,24.89
2023-04-18T04:26:53.596Z,24.89
2023-04-18T04:27:53.648Z,24.91
2023-04-18T04:28:53.673Z,24.85
2023-04-18T04:29:53.701Z,24.88
2023-04-18T04:30:53.748Z,24.88
2023-04-18T04:31:53.796Z,24.88
2023-04-18T04:32:53.890Z,24.84
2023-04-18T04:33:53.913Z,24.88
2023-04-18T04:34:53.922Z,24.88
2023-04-18T04:35:53.977Z,24.88
2023-04-18T04:36:54.011Z,24.84
2023-04-18T04:37:54.092Z,24.87
2023-04-18T04:38:54.144Z,24.87
2023-04-18T04:39:54.156Z,24.85
2023-04-18T04:40:54.208Z,24.84
2023-04-18T04:41:54.301Z,24.88
2023-04-18T04:42:54.309Z,24.82
2023-04-18T04:43:54.357Z,24.81
2023-04-18T04:44:54.421Z,24.80
2023-04-18T04:45:54.441Z,24.81
2023-04-18T04:46:54.529Z,24.82
2023-04-18T04:47:54.582Z,24.85
2023-04-18T04:48:54.550Z,24.78
2023-04-18T04:49:54.583Z,24.84
2023-04-18T04:50:54.647Z,24.82
2023-04-18T04:51:54.682Z,24.81
2023-04-18T04:52:54.706Z,24.84
2023-04-18T04:53:54.748Z,24.83
2023-04-18T04:54:54.802Z,24.83
2023-04-18T04:55:54.852Z,24.78
2023-04-18T04:56:54.894Z,24.80
2023-04-18T04:57:55.027Z,24.80
2023-04-18T04:58:54.965Z,24.81
2023-04-18T04:59:55.010Z,24.81
2023-04-18T05:00:55.233Z,24.82
2023-04-18T05:01:55.173Z,24.78
2023-04-18T05:02:55.358Z,24.78
2023-04-18T05:03:55.336Z,24.74
2023-04-18T05:04:55.278Z,24.83
2023-04-18T05:05:55.335Z,24.78
2023-04-18T05:06:55.352Z,24.80
2023-04-18T05:07:55.397Z,24.76
2023-04-18T05:08:55.446Z,24.80
2023-04-18T05:09:55.528Z,24.83
2023-04-18T05:10:55.567Z,24.77
2023-04-18T05:11:55.598Z,24.82
2023-04-18T05:12:55.653Z,24.80
2023-04-18T05:13:55.692Z,24.75
2023-04-18T05:14:55.759Z,24.76
2023-04-18T05:15:55.808Z,24.81
2023-04-18T05:16:55.912Z,24.73
2023-04-18T05:17:55.967Z,24.75
2023-04-18T05:18:55.978Z,24.77
2023-04-18T05:19:56.028Z,24.74
2023-04-18T05:20:56.070Z,24.81
2023-04-18T05:21:56.140Z,24.75
2023-04-18T05:22:56.237Z,24.80
2023-04-18T05:23:56.280Z,24.75
2023-04-18T05:24:56.299Z,24.74
2023-04-18T05:25:56.337Z,24.80
2023-04-18T05:26:56.414Z,24.75
2023-04-18T05:27:56.454Z,24.81
2023-04-18T05:28:56.530Z,24.78
2023-04-18T05:29:56.588Z,24.72
2023-04-18T05:30:56.691Z,24.74
2023-04-18T05:31:56.678Z,24.75
2023-04-18T05:32:56.745Z,24.71
2023-04-18T05:33:56.881Z,24.65
2023-04-18T05:34:56.849Z,24.91
2023-04-18T05:35:56.935Z,25.05
2023-04-18T05:36:56.966Z,25.06
2023-04-18T05:37:57.523Z,24.22
2023-04-18T05:38:57.108Z,24.44
2023-04-18T05:39:59.939Z,24.52
2023-04-18T05:40:57.147Z,24.69
2023-04-18T05:41:57.152Z,24.73
2023-04-18T05:42:57.089Z,24.52
2023-04-18T05:44:04.878Z,24.57
2023-04-18T05:44:58.149Z,24.52
2023-04-18T05:47:16.118Z,24.20
2023-04-18T05:48:15.900Z,23.91
2023-04-18T05:49:15.894Z,23.68
2023-04-18T05:50:15.873Z,23.63
2023-04-18T05:51:15.909Z,23.81
2023-04-18T05:52:15.908Z,24.18
2023-04-18T05:53:16.175Z,24.25
2023-04-18T05:54:16.211Z,24.53
2023-04-18T05:55:15.936Z,24.77
2023-04-18T05:56:15.928Z,25.07
2023-04-18T05:57:16.057Z,25.21
2023-04-18T05:58:16.122Z,25.42
2023-04-18T05:59:16.617Z,24.69
2023-04-18T06:00:16.189Z,25.45
2023-04-18T06:01:16.295Z,25.54
2023-04-18T06:02:17.411Z,24.95
2023-04-18T06:03:16.552Z,25.37
2023-04-18T06:04:17.242Z,25.65
2023-04-18T06:05:16.707Z,25.76
2023-04-18T06:06:16.457Z,25.87
2023-04-18T06:07:16.516Z,25.63
2023-04-18T06:08:16.559Z,25.70
2023-04-18T06:09:16.630Z,25.90
2023-04-18T06:10:16.688Z,25.96
2023-04-18T06:11:16.782Z,26.08
2023-04-18T06:12:16.799Z,25.91
2023-04-18T06:13:16.909Z,26.14
2023-04-18T06:14:16.996Z,26.11
2023-04-18T06:15:17.045Z,26.27
2023-04-18T06:16:17.084Z,26.18
2023-04-18T06:17:17.154Z,26.42
2023-04-18T06:18:17.230Z,26.42
2023-04-18T06:19:17.596Z,26.41
2023-04-18T06:20:17.284Z,26.59
2023-04-18T06:21:17.371Z,26.52
2023-04-18T06:22:17.432Z,26.60
2023-04-18T06:23:17.459Z,26.70
2023-04-18T06:24:17.547Z,26.77
2023-04-18T06:25:17.552Z,26.86
2023-04-18T06:26:17.600Z,27.01
2023-04-18T06:27:30.213Z,27.09
2023-04-18T06:28:18.645Z,27.26
2023-04-18T06:29:17.640Z,27.40
2023-04-18T06:30:17.687Z,27.45
2023-04-18T06:31:17.622Z,27.62
2023-04-18T06:32:17.609Z,27.69
2023-04-18T06:33:17.572Z,27.80
2023-04-18T06:34:17.603Z,28.01
2023-04-18T06:35:17.667Z,28.09
2023-04-18T06:36:17.588Z,28.12
2023-04-18T06:37:17.607Z,28.14
2023-04-18T06:38:17.538Z,28.19
2023-04-18T06:39:17.633Z,28.42
2023-04-18T06:40:17.571Z,28.47
2023-04-18T06:41:17.545Z,29.28
2023-04-18T06:42:17.703Z,29.28
2023-04-18T06:43:17.543Z,29.25
2023-04-18T06:44:17.597Z,29.40
2023-04-18T06:45:17.497Z,29.87
2023-04-18T06:46:17.536Z,29.85
2023-04-18T06:47:17.519Z,29.98
2023-04-18T06:48:17.518Z,30.14
2023-04-18T06:49:17.550Z,30.17
2023-04-18T06:50:17.520Z,30.07
2023-04-18T06:51:17.559Z,30.35
2023-04-18T06:52:17.552Z,30.50
2023-04-18T06:53:17.636Z,30.51
2023-04-18T06:54:17.653Z,30.59
2023-04-18T06:55:17.658Z,30.73
2023-04-18T06:56:17.645Z,30.73
2023-04-18T06:57:17.656Z,30.74
2023-04-18T06:58:17.699Z,30.87
2023-04-18T06:59:18.130Z,31.17
2023-04-18T07:00:17.698Z,31.15
2023-04-18T07:01:18.543Z,31.31
2023-04-18T07:02:17.720Z,31.49
2023-04-18T07:03:17.883Z,31.59
2023-04-18T07:04:17.903Z,31.54
2023-04-18T07:05:18.609Z,31.75
2023-04-18T07:06:17.701Z,31.73
2023-04-18T07:07:17.731Z,31.79
2023-04-18T07:08:17.779Z,31.65
2023-04-18T07:09:17.884Z,32.24
2023-04-18T07:10:17.925Z,32.36
2023-04-18T07:11:17.922Z,32.50
2023-04-18T07:12:17.943Z,32.57
2023-04-18T07:13:18.029Z,32.61
2023-04-18T07:14:18.038Z,32.76
2023-04-18T07:15:18.213Z,32.77
2023-04-18T07:16:18.130Z,32.88
2023-04-18T07:17:18.241Z,33.07
2023-04-18T07:18:30.271Z,33.04
2023-04-18T07:19:19.254Z,33.27
2023-04-18T07:20:18.227Z,33.17
2023-04-18T07:21:18.214Z,33.22
2023-04-18T07:22:18.185Z,33.29
2023-04-18T07:23:18.212Z,33.45
2023-04-18T07:24:18.203Z,33.47
2023-04-18T07:25:18.169Z,33.67
2023-04-18T07:26:18.176Z,33.94
2023-04-18T07:27:18.211Z,33.86
2023-04-18T07:28:18.276Z,33.76
2023-04-18T07:29:18.397Z,33.88
2023-04-18T07:30:18.360Z,34.00
2023-04-18T07:31:18.744Z,33.91
2023-04-18T07:32:18.628Z,33.89
2023-04-18T07:33:18.601Z,34.03
2023-04-18T07:34:18.635Z,33.95
2023-04-18T07:35:18.693Z,34.14
2023-04-18T07:36:18.756Z,34.05
2023-04-18T07:37:18.804Z,34.17
2023-04-18T07:38:18.853Z,33.75
2023-04-18T07:39:19.155Z,33.62
2023-04-18T07:40:18.999Z,33.15
2023-04-18T07:41:19.031Z,31.73
2023-04-18T07:42:19.033Z,30.79
2023-04-18T07:43:20.805Z,28.87
2023-04-18T07:44:19.094Z,27.97
2023-04-18T07:45:19.092Z,27.80
2023-04-18T07:46:19.150Z,29.66
2023-04-18T07:47:22.340Z,29.37
2023-04-18T07:48:19.118Z,29.33
2023-04-18T07:49:19.104Z,27.39
2023-04-18T07:50:19.133Z,26.81
2023-04-18T07:51:19.139Z,28.58
2023-04-18T07:52:19.134Z,28.36
2023-04-18T07:53:19.082Z,28.34
2023-04-18T07:54:19.082Z,28.63
2023-04-18T07:55:19.238Z,28.43
2023-04-18T07:56:19.063Z,28.13
2023-04-18T07:57:19.069Z,28.01
2023-04-18T07:58:19.032Z,27.21
2023-04-18T07:59:19.094Z,27.79
2023-04-18T08:00:19.084Z,27.18
2023-04-18T08:01:19.009Z,27.20
2023-04-18T08:02:19.193Z,27.13
2023-04-18T08:03:19.398Z,27.52
2023-04-18T08:04:19.198Z,25.36
2023-04-18T08:05:19.164Z,25.64
2023-04-18T08:06:18.982Z,25.74
2023-04-18T08:07:18.979Z,26.05
2023-04-18T08:08:18.952Z,26.38
2023-04-18T08:09:18.977Z,26.39
2023-04-18T08:10:18.989Z,25.95
2023-04-18T08:11:18.985Z,26.81
2023-04-18T08:12:19.121Z,27.36
2023-04-18T08:13:18.968Z,27.42
2023-04-18T08:14:19.082Z,27.35
2023-04-18T08:15:18.946Z,27.23
2023-04-18T08:16:19.000Z,26.58
2023-04-18T08:17:18.964Z,26.96
2023-04-18T08:18:18.923Z,27.13
2023-04-18T08:19:18.958Z,27.26
2023-04-18T08:20:18.921Z,27.26
2023-04-18T08:21:18.931Z,27.26
2023-04-18T08:22:18.915Z,27.21
2023-04-18T08:23:18.896Z,27.39
2023-04-18T08:24:18.888Z,27.34
2023-04-18T08:25:19.209Z,27.45
2023-04-18T08:26:18.853Z,27.86
2023-04-18T08:27:18.868Z,27.94
2023-04-18T08:28:18.869Z,28.18
2023-04-18T08:29:18.842Z,27.71
2023-04-18T08:30:18.837Z,27.75
2023-04-18T08:31:18.829Z,27.93
2023-04-18T08:32:18.856Z,28.59
2023-04-18T08:33:18.877Z,28.40
2023-04-18T08:34:18.823Z,28.25
2023-04-18T08:35:18.826Z,28.12
2023-04-18T08:36:18.852Z,27.82
2023-04-18T08:37:18.879Z,27.78
2023-04-18T08:38:18.889Z,27.77
2023-04-18T08:39:19.002Z,27.69
2023-04-18T08:40:19.737Z,27.59
2023-04-18T08:41:19.062Z,27.61
2023-04-18T08:42:19.094Z,27.47
2023-04-18T08:43:19.153Z,27.31
2023-04-18T08:44:19.178Z,27.29
2023-04-18T08:45:19.678Z,27.21
2023-04-18T08:46:19.296Z,27.08
2023-04-18T08:47:19.327Z,27.00
2023-04-18T08:48:19.343Z,26.96
2023-04-18T08:49:19.392Z,26.90
2023-04-18T08:50:19.713Z,26.88
2023-04-18T08:51:19.876Z,25.49
2023-04-18T08:52:19.519Z,23.97
2023-04-18T08:53:19.598Z,25.51
2023-04-18T08:54:19.610Z,24.34
2023-04-18T08:55:19.636Z,25.00
2023-04-18T08:56:19.685Z,25.10
2023-04-18T08:57:19.727Z,25.83
2023-04-18T08:58:19.758Z,25.83
2023-04-18T08:59:19.753Z,26.91
2023-04-18T09:00:20.223Z,26.82
2023-04-18T09:01:19.807Z,27.08
2023-04-18T09:02:19.845Z,27.28
2023-04-18T09:03:19.897Z,27.41
2023-04-18T09:04:19.860Z,27.39
2023-04-18T09:05:20.191Z,27.07
2023-04-18T09:06:19.911Z,27.00
2023-04-18T09:07:19.978Z,27.38
2023-04-18T09:08:20.004Z,27.59
2023-04-18T09:09:20.087Z,27.83
2023-04-18T09:10:20.158Z,27.85
2023-04-18T09:11:20.210Z,27.86
2023-04-18T09:12:21.254Z,27.93
2023-04-18T09:13:20.313Z,27.72
2023-04-18T09:14:20.377Z,27.38
2023-04-18T09:15:20.456Z,27.36
2023-04-18T09:16:20.521Z,27.40
2023-04-18T09:17:20.504Z,27.42
2023-04-18T09:18:20.610Z,27.73
2023-04-18T09:19:20.677Z,27.70
2023-04-18T09:20:20.662Z,27.39
2023-04-18T09:21:20.710Z,26.96
2023-04-18T09:22:20.802Z,27.03
2023-04-18T09:23:20.867Z,27.07
2023-04-18T09:24:21.013Z,27.17
2023-04-18T09:25:20.950Z,27.26
2023-04-18T09:26:20.959Z,27.19
2023-04-18T09:27:21.018Z,27.13
2023-04-18T09:28:21.163Z,27.27
2023-04-18T09:29:21.074Z,27.38
2023-04-18T09:30:21.150Z,27.44
2023-04-18T09:31:21.225Z,27.32
2023-04-18T09:32:21.213Z,27.49
2023-04-18T09:33:21.226Z,27.47
2023-04-18T09:34:21.224Z,27.50
2023-04-18T09:35:21.707Z,27.07
2023-04-18T09:36:21.361Z,27.31
2023-04-18T09:37:21.346Z,27.21
2023-04-18T09:38:21.339Z,27.39
2023-04-18T09:39:21.626Z,27.55
2023-04-18T09:40:21.598Z,27.67
2023-04-18T09:41:21.731Z,27.58
2023-04-18T09:42:21.605Z,27.56
2023-04-18T09:43:21.522Z,27.40
2023-04-18T09:44:21.554Z,27.71
2023-04-18T09:45:21.716Z,26.68
2023-04-18T09:46:21.726Z,27.97
2023-04-18T09:47:21.679Z,27.88
2023-04-18T09:48:21.704Z,28.07
2023-04-18T09:49:21.742Z,28.08
2023-04-18T09:50:21.761Z,28.27
2023-04-18T09:51:21.817Z,28.24
2023-04-18T09:52:21.856Z,28.35
2023-04-18T09:53:21.931Z,28.22
2023-04-18T09:54:21.898Z,28.17
2023-04-18T09:55:22.201Z,27.93
2023-04-18T09:56:21.988Z,27.82
2023-04-18T09:57:22.015Z,27.45
2023-04-18T09:58:21.995Z,27.04
2023-04-18T09:59:22.074Z,26.91
2023-04-18T10:00:22.138Z,26.75
2023-04-18T10:01:22.152Z,26.61
2023-04-18T10:02:22.284Z,26.20
2023-04-18T10:03:22.324Z,26.37
2023-04-18T10:04:22.284Z,26.20
2023-04-18T10:05:22.341Z,25.94
2023-04-18T10:06:22.365Z,26.01
2023-04-18T10:07:22.432Z,26.15
2023-04-18T10:08:22.435Z,26.10
2023-04-18T10:09:22.518Z,25.39
2023-04-18T10:10:22.726Z,25.70
2023-04-18T10:11:22.669Z,25.95
2023-04-18T10:12:22.717Z,25.61
2023-04-18T10:13:22.738Z,25.61
2023-04-18T10:14:22.809Z,24.75
2023-04-18T10:15:23.205Z,24.84
2023-04-18T10:16:22.992Z,25.20
2023-04-18T10:17:23.001Z,25.20
2023-04-18T10:18:23.217Z,25.18
2023-04-18T10:19:23.153Z,24.80
2023-04-18T10:20:23.364Z,24.63
2023-04-18T10:21:23.297Z,24.98
2023-04-18T10:22:23.353Z,25.15
2023-04-18T10:23:23.463Z,24.85
2023-04-18T10:24:23.475Z,24.94
2023-04-18T10:25:23.743Z,24.71
2023-04-18T10:26:23.438Z,24.44
2023-04-18T10:27:23.498Z,24.35
2023-04-18T10:28:23.619Z,23.49
2023-04-18T10:29:23.666Z,23.75
2023-04-18T10:30:23.727Z,24.19
2023-04-18T10:31:24.292Z,24.51
2023-04-18T10:32:23.861Z,24.62
2023-04-18T10:33:30.386Z,25.08
2023-04-18T10:34:24.816Z,25.25
2023-04-18T10:35:24.275Z,26.00
2023-04-18T10:36:23.823Z,25.68
2023-04-18T10:37:23.786Z,26.14
2023-04-18T10:38:23.786Z,26.46
2023-04-18T10:39:23.806Z,26.94
2023-04-18T10:40:23.807Z,26.14
2023-04-18T10:41:24.241Z,27.79
2023-04-18T10:42:23.815Z,27.77
2023-04-18T10:43:23.808Z,27.80
2023-04-18T10:44:24.166Z,28.37
2023-04-18T10:45:23.751Z,28.41
2023-04-18T10:46:31.634Z,28.55
2023-04-18T10:47:24.952Z,28.80
2023-04-18T10:48:23.880Z,28.92
2023-04-18T10:49:26.372Z,28.97
2023-04-18T10:50:23.777Z,29.03
2023-04-18T10:51:23.734Z,28.88
2023-04-18T10:52:23.682Z,28.96
2023-04-18T10:53:23.709Z,29.12
2023-04-18T10:54:23.656Z,29.08
2023-04-18T10:55:23.713Z,28.94
2023-04-18T10:56:24.228Z,28.88
2023-04-18T10:57:23.666Z,28.92
2023-04-18T10:58:23.679Z,27.97
2023-04-18T10:59:23.767Z,28.67
2023-04-18T11:00:23.671Z,28.36
2023-04-18T11:01:23.742Z,28.10
2023-04-18T11:02:23.716Z,28.90
2023-04-18T11:03:23.695Z,28.84
2023-04-18T11:04:23.657Z,28.68
2023-04-18T11:05:23.598Z,28.69
2023-04-18T11:06:23.743Z,28.87
2023-04-18T11:07:23.596Z,28.86
2023-04-18T11:08:23.549Z,28.93
2023-04-18T11:09:23.594Z,29.20
2023-04-18T11:10:23.572Z,28.99
2023-04-18T11:11:23.736Z,29.06
2023-04-18T11:12:23.550Z,29.18
2023-04-18T11:13:23.546Z,29.10
2023-04-18T11:14:23.544Z,29.12
2023-04-18T11:15:23.598Z,29.18
2023-04-18T11:16:23.602Z,29.32
2023-04-18T11:17:23.587Z,29.08
2023-04-18T11:18:23.475Z,29.12
2023-04-18T11:19:23.547Z,29.25
2023-04-18T11:20:23.519Z,29.11
2023-04-18T11:21:23.473Z,28.77
2023-04-18T11:22:23.474Z,29.13
2023-04-18T11:23:23.487Z,28.86
2023-04-18T11:24:23.464Z,29.06
2023-04-18T11:25:23.466Z,28.86
2023-04-18T11:26:23.473Z,28.85
2023-04-18T11:27:23.446Z,28.73
2023-04-18T11:28:23.422Z,28.67
2023-04-18T11:29:23.477Z,28.56
2023-04-18T11:30:23.426Z,28.77
2023-04-18T11:31:23.785Z,29.23
2023-04-18T11:32:23.628Z,29.06
2023-04-18T11:33:23.435Z,29.12
2023-04-18T11:34:23.421Z,29.05
2023-04-18T11:35:23.436Z,28.95
2023-04-18T11:36:23.784Z,28.99
2023-04-18T11:37:23.376Z,29.02
2023-04-18T11:38:24.330Z,28.94
2023-04-18T11:39:23.434Z,28.91
2023-04-18T11:40:23.397Z,28.86
2023-04-18T11:41:23.769Z,28.73
2023-04-18T11:42:23.312Z,28.70
2023-04-18T11:43:23.365Z,28.73
2023-04-18T11:44:23.330Z,28.72
2023-04-18T11:45:23.296Z,28.73
2023-04-18T11:46:23.384Z,28.68
2023-04-18T11:47:23.381Z,28.68
2023-04-18T11:48:23.363Z,28.61
2023-04-18T11:49:23.366Z,28.56
2023-04-18T11:50:23.374Z,28.59
2023-04-18T11:51:23.427Z,28.51
2023-04-18T11:52:23.436Z,28.50
2023-04-18T11:53:23.434Z,28.52
2023-04-18T11:54:23.490Z,28.45
2023-04-18T11:55:23.492Z,28.45
2023-04-18T11:56:23.566Z,28.45
2023-04-18T11:57:23.551Z,28.47
2023-04-18T11:58:23.627Z,28.34
2023-04-18T11:59:23.640Z,28.34
2023-04-18T12:00:23.700Z,28.33
2023-04-18T12:01:23.666Z,28.29
2023-04-18T12:02:23.822Z,28.28
2023-04-18T12:03:24.000Z,28.27
2023-04-18T12:04:24.047Z,28.18
2023-04-18T12:05:24.106Z,28.21
2023-04-18T12:06:24.095Z,28.21
2023-04-18T12:07:24.004Z,28.18
2023-04-18T12:08:23.948Z,28.15
2023-04-18T12:09:24.007Z,28.14
2023-04-18T12:10:24.022Z,28.14
2023-04-18T12:11:24.074Z,28.14
2023-04-18T12:12:24.067Z,28.11
2023-04-18T12:13:24.105Z,28.10
2023-04-18T12:14:24.153Z,28.11
2023-04-18T12:15:24.220Z,27.99
2023-04-18T12:16:24.329Z,27.96
2023-04-18T12:17:24.299Z,27.93
2023-04-18T12:18:24.312Z,28.00
2023-04-18T12:19:24.321Z,27.94
2023-04-18T12:20:24.409Z,27.91
2023-04-18T12:21:24.395Z,27.87
2023-04-18T12:22:24.769Z,27.94
2023-04-18T12:23:24.484Z,27.87
2023-04-18T12:24:24.536Z,27.89
2023-04-18T12:25:26.916Z,27.96
2023-04-18T12:26:24.790Z,27.90
2023-04-18T12:27:24.848Z,27.87
2023-04-18T12:28:24.873Z,27.86
2023-04-18T12:29:24.928Z,27.76
2023-04-18T12:30:24.974Z,27.88
2023-04-18T12:31:25.026Z,27.85
2023-04-18T12:32:25.089Z,27.84
2023-04-18T12:33:25.079Z,27.89
2023-04-18T12:34:25.149Z,27.85
2023-04-18T12:35:25.205Z,27.99
2023-04-18T12:36:25.254Z,28.18
2023-04-18T12:37:25.270Z,28.41
2023-04-18T12:38:25.324Z,28.47
2023-04-18T12:39:25.329Z,28.45
2023-04-18T12:40:25.367Z,28.66
2023-04-18T12:41:25.775Z,28.83
2023-04-18T12:42:25.432Z,29.15
2023-04-18T12:43:25.471Z,29.12
2023-04-18T12:44:25.490Z,29.31
2023-04-18T12:45:25.540Z,29.39
2023-04-18T12:46:25.554Z,29.60
2023-04-18T12:47:25.650Z,29.74
2023-04-18T12:48:25.606Z,29.84
2023-04-18T12:49:25.683Z,30.01
2023-04-18T12:50:25.660Z,29.98
2023-04-18T12:51:25.701Z,29.99
2023-04-18T12:52:25.740Z,30.11
2023-04-18T12:53:25.758Z,30.52
2023-04-18T12:54:25.822Z,30.32